createdAt,value
2022-11-23T00:01:30.606Z,100.00
2022-11-23T00:04:02.211Z,100.00
2022-11-23T00:06:29.451Z,100.00
2022-11-23T00:08:56.438Z,100.00
2022-11-23T00:11:25.914Z,100.00
2022-11-23T00:13:53.935Z,100.00
2022-11-23T00:16:27.122Z,100.00
2022-11-23T00:19:00.304Z,100.00
2022-11-23T00:21:30.615Z,100.00
2022-11-23T00:23:58.089Z,100.00
2022-11-23T00:26:25.040Z,100.00
2022-11-23T00:28:51.973Z,100.00
2022-11-23T00:31:20.727Z,100.00
2022-11-23T00:33:56.438Z,100.00
2022-11-23T00:36:26.403Z,100.00
2022-11-23T00:38:57.653Z,100.00
2022-11-23T00:41:28.210Z,100.00
2022-11-23T00:43:55.474Z,100.00
2022-11-23T00:46:27.927Z,100.00
2022-11-23T00:48:57.428Z,100.00
2022-11-23T00:51:30.153Z,100.00
2022-11-23T00:53:57.951Z,100.00
2022-11-23T00:56:26.514Z,100.00
2022-11-23T00:58:56.202Z,100.00
2022-11-23T01:01:30.931Z,100.00
2022-11-23T01:03:59.319Z,100.00
2022-11-23T01:06:33.122Z,100.00
2022-11-23T01:09:13.373Z,100.00
2022-11-23T01:11:40.964Z,100.00
2022-11-23T01:14:08.227Z,100.00
2022-11-23T01:16:39.124Z,100.00
2022-11-23T01:19:11.502Z,100.00
2022-11-23T01:21:39.710Z,100.00
2022-11-23T01:24:17.105Z,100.00
2022-11-23T01:26:44.696Z,100.00
2022-11-23T01:29:12.484Z,100.00
2022-11-23T01:31:46.148Z,100.00
2022-11-23T01:34:15.620Z,100.00
2022-11-23T01:36:43.610Z,100.00
2022-11-23T01:39:11.779Z,100.00
2022-11-23T01:41:41.854Z,100.00
2022-11-23T01:44:29.955Z,100.00
2022-11-23T01:47:06.507Z,100.00
2022-11-23T01:49:44.314Z,100.00
2022-11-23T01:52:17.245Z,100.00
2022-11-23T01:54:53.553Z,100.00
2022-11-23T01:57:28.946Z,100.00
2022-11-23T01:59:57.454Z,100.00
2022-11-23T02:02:28.320Z,100.00
2022-11-23T02:04:57.574Z,100.00
2022-11-23T02:07:25.487Z,100.00
2022-11-23T02:09:52.965Z,100.00
2022-11-23T02:12:19.985Z,100.00
2022-11-23T02:14:47.017Z,100.00
2022-11-23T02:17:14.431Z,100.00
2022-11-23T02:20:09.717Z,100.00
2022-11-23T02:23:04.343Z,100.00
2022-11-23T02:25:45.483Z,100.00
2022-11-23T02:28:23.739Z,100.00
2022-11-23T02:30:53.592Z,100.00
2022-11-23T02:33:25.224Z,100.00
2022-11-23T02:36:02.296Z,100.00
2022-11-23T02:38:33.644Z,100.00
2022-11-23T02:41:01.281Z,100.00
2022-11-23T02:43:28.464Z,100.00
2022-11-23T02:46:02.088Z,100.00
2022-11-23T02:48:29.356Z,100.00
2022-11-23T02:50:56.294Z,100.00
2022-11-23T02:53:24.356Z,100.00
2022-11-23T02:55:53.929Z,100.00
2022-11-23T02:58:20.904Z,100.00
2022-11-23T03:00:48.045Z,100.00
2022-11-23T03:03:17.791Z,100.00
2022-11-23T03:05:45.106Z,100.00
2022-11-23T03:08:12.122Z,100.00
2022-11-23T03:10:40.462Z,100.00
2022-11-23T03:13:07.545Z,100.00
2022-11-23T03:15:36.063Z,100.00
2022-11-23T03:18:05.027Z,100.00
2022-11-23T03:20:32.542Z,100.00
2022-11-23T03:22:59.554Z,100.00
2022-11-23T03:25:27.117Z,100.00
2022-11-23T03:27:56.658Z,100.00
2022-11-23T03:30:23.785Z,100.00
2022-11-23T03:32:50.799Z,100.00
2022-11-23T03:35:19.049Z,100.00
2022-11-23T03:38:18.433Z,100.00
2022-11-23T03:40:46.349Z,100.00
2022-11-23T03:43:19.760Z,100.00
2022-11-23T03:45:47.343Z,100.00
2022-11-23T03:48:15.724Z,100.00
2022-11-23T03:50:44.377Z,100.00
2022-11-23T03:53:11.684Z,100.00
2022-11-23T03:55:38.990Z,100.00
2022-11-23T03:58:06.003Z,100.00
2022-11-23T04:00:35.866Z,100.00
2022-11-23T04:03:04.356Z,100.00
2022-11-23T04:05:50.285Z,100.00
2022-11-23T04:08:46.392Z,100.00
2022-11-23T04:11:20.768Z,100.00
2022-11-23T04:13:49.382Z,100.00
2022-11-23T04:16:16.343Z,100.00
2022-11-23T04:18:43.472Z,100.00
2022-11-23T04:21:11.005Z,100.00
2022-11-23T04:23:38.109Z,100.00
2022-11-23T04:26:07.993Z,100.00
2022-11-23T04:28:41.212Z,100.00
2022-11-23T04:31:08.313Z,100.00
2022-11-23T04:33:45.901Z,100.00
2022-11-23T04:36:15.358Z,100.00
2022-11-23T04:38:43.231Z,100.00
2022-11-23T04:41:11.198Z,100.00
2022-11-23T04:43:39.494Z,100.00
2022-11-23T04:46:07.207Z,100.00
2022-11-23T04:48:34.184Z,100.00
2022-11-23T04:51:01.397Z,100.00
2022-11-23T04:53:34.526Z,100.00
2022-11-23T04:56:02.073Z,100.00
2022-11-23T04:58:34.672Z,100.00
2022-11-23T05:01:03.050Z,100.00
2022-11-23T05:03:34.960Z,100.00
2022-11-23T05:06:07.330Z,100.00
2022-11-23T05:08:39.720Z,100.00
2022-11-23T05:11:20.711Z,100.00
2022-11-23T05:13:49.262Z,100.00
2022-11-23T05:16:16.803Z,100.00
2022-11-23T05:18:44.197Z,100.00
2022-11-23T05:21:11.258Z,100.00
2022-11-23T05:23:38.406Z,100.00
2022-11-23T05:26:05.705Z,100.00
2022-11-23T05:28:41.451Z,100.00
2022-11-23T05:31:12.313Z,100.00
2022-11-23T05:33:39.453Z,100.00
2022-11-23T05:36:09.482Z,100.00
2022-11-23T05:38:38.864Z,100.00
2022-11-23T05:41:12.366Z,100.00
2022-11-23T05:43:42.235Z,100.00
2022-11-23T05:46:12.057Z,100.00
2022-11-23T05:48:39.377Z,100.00
2022-11-23T05:51:10.804Z,100.00
2022-11-23T05:53:43.510Z,100.00
2022-11-23T05:56:19.179Z,100.00
2022-11-23T05:58:58.496Z,100.00
2022-11-23T06:01:26.419Z,100.00
2022-11-23T06:03:57.641Z,100.00
2022-11-23T06:06:25.178Z,100.00
2022-11-23T06:08:52.322Z,100.00
2022-11-23T06:11:19.917Z,100.00
2022-11-23T06:13:48.384Z,100.00
2022-11-23T06:16:17.587Z,100.00
2022-11-23T06:18:57.745Z,100.00
2022-11-23T06:21:24.733Z,100.00
2022-11-23T06:23:52.313Z,100.00
2022-11-23T06:26:20.981Z,100.00
2022-11-23T06:28:48.656Z,100.00
2022-11-23T06:31:17.848Z,100.00
2022-11-23T06:33:44.754Z,100.00
2022-11-23T06:36:12.356Z,100.00
2022-11-23T06:38:45.137Z,100.00
2022-11-23T06:41:17.782Z,100.00
2022-11-23T06:43:49.715Z,100.00
2022-11-23T06:46:29.090Z,100.00
2022-11-23T06:48:56.295Z,100.00
2022-11-23T06:51:23.294Z,100.00
2022-11-23T06:53:51.879Z,100.00
2022-11-23T06:56:18.923Z,100.00
2022-11-23T06:58:46.360Z,100.00
2022-11-23T07:01:18.287Z,100.00
2022-11-23T07:04:00.089Z,100.00
2022-11-23T07:06:34.175Z,100.00
2022-11-23T07:09:06.392Z,100.00
2022-11-23T07:11:44.224Z,100.00
2022-11-23T07:14:12.028Z,100.00
2022-11-23T07:16:42.484Z,100.00
2022-11-23T07:19:09.867Z,100.00
2022-11-23T07:21:36.882Z,100.00
2022-11-23T07:24:03.962Z,100.00
2022-11-23T07:26:30.987Z,100.00
2022-11-23T07:28:57.951Z,100.00
2022-11-23T07:31:25.182Z,100.00
2022-11-23T07:33:53.405Z,100.00
2022-11-23T07:36:21.821Z,100.00
2022-11-23T07:38:48.913Z,100.00
2022-11-23T07:41:18.663Z,100.00
2022-11-23T07:44:11.947Z,100.00
2022-11-23T07:46:38.940Z,100.00
2022-11-23T07:49:06.104Z,100.00
2022-11-23T07:51:34.077Z,100.00
2022-11-23T07:54:01.195Z,100.00
2022-11-23T07:56:28.135Z,100.00
2022-11-23T07:58:55.046Z,100.00
2022-11-23T08:01:22.083Z,100.00
2022-11-23T08:03:49.391Z,100.00
2022-11-23T08:06:17.190Z,100.00
2022-11-23T08:08:45.130Z,100.00
2022-11-23T08:11:14.735Z,100.00
2022-11-23T08:13:41.677Z,100.00
2022-11-23T08:16:08.812Z,100.00
2022-11-23T08:18:36.240Z,100.00
2022-11-23T08:21:04.283Z,100.00
2022-11-23T08:23:31.201Z,100.00
2022-11-23T08:25:58.136Z,100.00
2022-11-23T08:28:25.089Z,100.00
2022-11-23T08:30:52.068Z,100.00
2022-11-23T08:33:19.275Z,100.00
2022-11-23T08:35:46.233Z,100.00
2022-11-23T08:38:13.779Z,100.00
2022-11-23T08:40:40.799Z,100.00
2022-11-23T08:43:07.779Z,100.00
2022-11-23T08:45:35.126Z,100.00
2022-11-23T08:48:03.820Z,100.00
2022-11-23T08:50:32.160Z,100.00
2022-11-23T08:52:59.949Z,100.00
2022-11-23T08:55:28.044Z,100.00
2022-11-23T08:57:57.145Z,100.00
2022-11-23T09:00:26.025Z,100.00
2022-11-23T09:02:53.114Z,100.00
2022-11-23T09:05:20.434Z,100.00
2022-11-23T09:07:47.535Z,100.00
2022-11-23T09:10:18.302Z,100.00
2022-11-23T09:12:49.282Z,100.00
2022-11-23T09:15:16.520Z,100.00
2022-11-23T09:17:43.644Z,100.00
2022-11-23T09:20:11.421Z,100.00
2022-11-23T09:22:39.030Z,100.00
2022-11-23T09:25:07.129Z,100.00
2022-11-23T09:27:34.372Z,100.00
2022-11-23T09:30:01.268Z,100.00
2022-11-23T09:32:28.356Z,100.00
2022-11-23T09:34:55.291Z,100.00
2022-11-23T09:37:22.223Z,100.00
2022-11-23T09:39:49.215Z,100.00
2022-11-23T09:43:00.420Z,100.00
2022-11-23T09:45:44.167Z,100.00
2022-11-23T09:48:39.065Z,100.00
2022-11-23T09:51:10.255Z,100.00
2022-11-23T09:54:03.139Z,100.00
2022-11-23T09:56:38.866Z,100.00
2022-11-23T09:59:22.139Z,100.00
2022-11-23T10:01:49.176Z,100.00
2022-11-23T10:04:20.629Z,100.00
2022-11-23T10:06:56.634Z,100.00
2022-11-23T10:10:05.669Z,100.00
2022-11-23T10:12:59.037Z,100.00
2022-11-23T10:15:51.498Z,100.00
2022-11-23T10:18:51.789Z,100.00
2022-11-23T10:21:41.027Z,100.00
2022-11-23T10:24:21.660Z,100.00
2022-11-23T10:26:50.385Z,100.00
2022-11-23T10:29:33.480Z,100.00
2022-11-23T10:32:01.045Z,100.00
2022-11-23T10:35:09.114Z,100.00
2022-11-23T10:37:40.166Z,100.00
2022-11-23T10:40:29.273Z,100.00
2022-11-23T10:43:14.548Z,100.00
2022-11-23T10:45:41.507Z,100.00
2022-11-23T10:48:08.883Z,100.00
2022-11-23T10:50:40.747Z,100.00
2022-11-23T10:53:28.201Z,100.00
2022-11-23T10:55:59.343Z,100.00
2022-11-23T10:58:42.694Z,100.00
2022-11-23T11:01:20.898Z,100.00
2022-11-23T11:03:48.110Z,100.00
2022-11-23T11:06:23.899Z,100.00
2022-11-23T11:09:03.932Z,100.00
2022-11-23T11:11:35.153Z,100.00
2022-11-23T11:14:18.845Z,100.00
2022-11-23T11:16:57.929Z,100.00
2022-11-23T11:19:35.670Z,100.00
2022-11-23T11:22:30.267Z,100.00
2022-11-23T11:24:57.776Z,99.77
2022-11-23T11:27:28.205Z,99.84
2022-11-23T11:30:01.896Z,98.75
2022-11-23T11:33:07.094Z,97.47
2022-11-23T11:35:38.918Z,97.60
2022-11-23T11:38:22.267Z,97.55
2022-11-23T11:40:51.741Z,98.67
2022-11-23T11:43:36.264Z,99.69
2022-11-23T11:46:31.129Z,98.58
2022-11-23T11:49:07.403Z,96.99
2022-11-23T11:51:44.606Z,96.41
2022-11-23T11:54:13.606Z,96.58
2022-11-23T11:56:47.231Z,96.77
2022-11-23T11:59:30.841Z,95.79
2022-11-23T12:02:18.347Z,95.15
2022-11-23T12:05:20.581Z,90.82
2022-11-23T12:08:36.518Z,90.21
2022-11-23T12:11:05.693Z,88.74
2022-11-23T12:13:35.611Z,85.99
2022-11-23T12:16:40.389Z,86.63
2022-11-23T12:19:16.154Z,84.99
2022-11-23T12:22:07.627Z,85.21
2022-11-23T12:24:43.861Z,84.68
2022-11-23T12:27:27.824Z,84.63
2022-11-23T12:30:26.044Z,83.71
2022-11-23T12:33:30.708Z,84.23
2022-11-23T12:36:26.224Z,84.40
2022-11-23T12:39:08.254Z,85.54
2022-11-23T12:42:02.347Z,86.20
2022-11-23T12:45:06.111Z,88.21
2022-11-23T12:47:47.955Z,89.85
2022-11-23T12:50:55.034Z,89.30
2022-11-23T12:53:48.788Z,88.43
2022-11-23T12:56:25.658Z,88.56
2022-11-23T12:58:56.767Z,89.57
2022-11-23T13:01:35.520Z,88.88
2022-11-23T13:04:36.301Z,86.79
2022-11-23T13:07:48.933Z,85.71
2022-11-23T13:11:20.218Z,83.05
2022-11-23T13:14:23.872Z,82.22
2022-11-23T13:17:18.702Z,81.17
2022-11-23T13:20:12.737Z,80.98
2022-11-23T13:22:45.451Z,79.63
2022-11-23T13:25:26.163Z,80.10
2022-11-23T13:27:53.118Z,80.42
2022-11-23T13:31:13.930Z,81.98
2022-11-23T13:33:30.629Z,81.38
2022-11-23T13:36:07.134Z,81.37
2022-11-23T13:38:43.243Z,81.42
2022-11-23T13:42:01.366Z,82.78
2022-11-23T13:44:31.646Z,82.44
2022-11-23T13:47:19.595Z,82.25
2022-11-23T13:49:52.825Z,83.30
2022-11-23T13:52:24.196Z,83.40
2022-11-23T13:55:15.623Z,84.70
2022-11-23T13:58:07.771Z,84.55
2022-11-23T14:00:52.318Z,85.57
2022-11-23T14:03:49.780Z,86.82
2022-11-23T14:06:46.235Z,88.19
2022-11-23T14:09:37.220Z,88.86
2022-11-23T14:12:36.158Z,89.81
2022-11-23T14:15:12.214Z,90.25
2022-11-23T14:18:22.855Z,90.57
2022-11-23T14:21:38.257Z,90.11
2022-11-23T14:24:44.000Z,90.31
2022-11-23T14:27:47.340Z,90.08
2022-11-23T14:30:44.478Z,89.91
2022-11-23T14:34:15.285Z,89.73
2022-11-23T14:37:17.746Z,89.68
2022-11-23T14:40:27.198Z,90.66
2022-11-23T14:42:56.717Z,90.98
2022-11-23T14:45:28.955Z,90.56
2022-11-23T14:47:55.924Z,90.96
2022-11-23T14:50:28.980Z,92.12
2022-11-23T14:52:59.918Z,92.66
2022-11-23T14:55:29.838Z,93.85
2022-11-23T14:58:04.681Z,94.20
2022-11-23T15:00:39.746Z,94.50
2022-11-23T15:03:48.854Z,95.09
2022-11-23T15:06:15.995Z,95.95
2022-11-23T15:09:39.566Z,96.27
2022-11-23T15:12:20.428Z,96.61
2022-11-23T15:14:50.501Z,96.78
2022-11-23T15:17:22.543Z,97.15
2022-11-23T15:20:00.848Z,97.81
2022-11-23T15:22:29.421Z,97.83
2022-11-23T15:25:13.686Z,97.75
2022-11-23T15:27:42.372Z,97.82
2022-11-23T15:30:30.090Z,98.16
2022-11-23T15:33:08.182Z,98.71
2022-11-23T15:35:38.822Z,98.40
2022-11-23T15:38:13.220Z,99.21
2022-11-23T15:40:44.580Z,99.37
2022-11-23T15:43:17.118Z,99.54
2022-11-23T15:45:44.059Z,99.80
2022-11-23T15:48:17.040Z,100.00
2022-11-23T15:50:51.298Z,100.00
2022-11-23T15:53:22.269Z,100.00
2022-11-23T15:55:50.163Z,99.89
2022-11-23T15:58:19.790Z,100.00
2022-11-23T16:01:13.428Z,100.00
2022-11-23T16:03:52.441Z,100.00
2022-11-23T16:06:35.249Z,100.00
2022-11-23T16:09:07.371Z,100.00
2022-11-23T16:11:45.201Z,100.00
2022-11-23T16:14:31.554Z,100.00
2022-11-23T16:17:17.531Z,100.00
2022-11-23T16:19:54.019Z,100.00
2022-11-23T16:22:36.605Z,100.00
2022-11-23T16:25:30.181Z,100.00
2022-11-23T16:28:01.405Z,100.00
2022-11-23T16:30:38.709Z,100.00
2022-11-23T16:33:06.956Z,100.00
2022-11-23T16:35:33.849Z,100.00
2022-11-23T16:38:00.840Z,100.00
2022-11-23T16:40:28.064Z,100.00
2022-11-23T16:42:55.036Z,100.00
2022-11-23T16:45:22.008Z,100.00
2022-11-23T16:47:55.342Z,100.00
2022-11-23T16:50:24.505Z,100.00
2022-11-23T16:52:51.818Z,100.00
2022-11-23T16:55:18.799Z,100.00
2022-11-23T16:57:46.632Z,100.00
2022-11-23T17:00:22.831Z,100.00
2022-11-23T17:02:50.258Z,100.00
2022-11-23T17:05:20.799Z,100.00
2022-11-23T17:07:47.881Z,100.00
2022-11-23T17:10:15.277Z,100.00
2022-11-23T17:12:51.558Z,100.00
2022-11-23T17:15:21.536Z,100.00
2022-11-23T17:17:48.540Z,100.00
2022-11-23T17:20:17.356Z,100.00
2022-11-23T17:22:44.875Z,100.00
2022-11-23T17:25:15.011Z,100.00
2022-11-23T17:27:43.670Z,100.00
2022-11-23T17:30:16.101Z,100.00
2022-11-23T17:32:43.304Z,100.00
2022-11-23T17:35:10.287Z,100.00
2022-11-23T17:37:37.471Z,100.00
2022-11-23T17:40:05.195Z,100.00
2022-11-23T17:42:32.388Z,100.00
2022-11-23T17:44:59.599Z,100.00
2022-11-23T17:47:30.490Z,100.00
2022-11-23T17:49:58.257Z,100.00
2022-11-23T17:52:25.375Z,100.00
2022-11-23T17:54:52.427Z,100.00
2022-11-23T17:57:24.379Z,100.00
2022-11-23T17:59:52.039Z,100.00
2022-11-23T18:02:19.557Z,100.00
2022-11-23T18:04:47.807Z,100.00
2022-11-23T18:07:16.354Z,100.00
2022-11-23T18:09:43.574Z,100.00
2022-11-23T18:12:10.651Z,100.00
2022-11-23T18:14:37.902Z,100.00
2022-11-23T18:17:04.948Z,100.00
2022-11-23T18:19:32.331Z,100.00
2022-11-23T18:21:59.386Z,100.00
2022-11-23T18:24:26.353Z,100.00
2022-11-23T18:26:53.487Z,100.00
2022-11-23T18:29:20.494Z,100.00
2022-11-23T18:31:47.990Z,100.00
2022-11-23T18:34:15.028Z,100.00
2022-11-23T18:36:42.004Z,100.00
2022-11-23T18:39:09.024Z,100.00
2022-11-23T18:41:35.992Z,100.00
2022-11-23T18:44:02.971Z,100.00
2022-11-23T18:46:29.905Z,100.00
2022-11-23T18:48:57.417Z,100.00
2022-11-23T18:51:24.943Z,100.00
2022-11-23T18:53:53.267Z,100.00
2022-11-23T18:56:20.407Z,100.00
2022-11-23T18:58:47.606Z,100.00
2022-11-23T19:01:18.215Z,100.00
2022-11-23T19:03:47.783Z,100.00
2022-11-23T19:06:16.970Z,100.00
2022-11-23T19:08:47.924Z,100.00
2022-11-23T19:11:21.326Z,100.00
2022-11-23T19:13:51.927Z,100.00
2022-11-23T19:16:24.742Z,100.00
2022-11-23T19:19:03.536Z,100.00
2022-11-23T19:21:33.462Z,100.00
2022-11-23T19:24:01.173Z,100.00
2022-11-23T19:26:29.471Z,100.00
2022-11-23T19:28:57.159Z,100.00
2022-11-23T19:31:30.281Z,100.00
2022-11-23T19:34:00.903Z,100.00
2022-11-23T19:36:30.308Z,100.00
2022-11-23T19:39:00.573Z,100.00
2022-11-23T19:41:30.710Z,100.00
2022-11-23T19:43:59.871Z,100.00
2022-11-23T19:46:27.877Z,100.00
2022-11-23T19:48:57.128Z,100.00
2022-11-23T19:51:25.883Z,100.00
2022-11-23T19:53:54.679Z,100.00
2022-11-23T19:56:24.076Z,100.00
2022-11-23T19:58:53.953Z,100.00
2022-11-23T20:01:23.170Z,100.00
2022-11-23T20:03:52.356Z,100.00
2022-11-23T20:06:26.377Z,100.00
2022-11-23T20:09:02.548Z,100.00
2022-11-23T20:11:31.699Z,100.00
2022-11-23T20:13:59.161Z,100.00
2022-11-23T20:16:28.257Z,100.00
2022-11-23T20:18:58.955Z,100.00
2022-11-23T20:21:28.521Z,100.00
2022-11-23T20:24:05.672Z,100.00
2022-11-23T20:26:36.137Z,100.00
2022-11-23T20:29:05.229Z,100.00
2022-11-23T20:31:33.384Z,100.00
2022-11-23T20:34:02.519Z,100.00
2022-11-23T20:36:34.030Z,100.00
2022-11-23T20:39:07.053Z,100.00
2022-11-23T20:41:37.251Z,100.00
2022-11-23T20:44:12.833Z,100.00
2022-11-23T20:49:27.935Z,100.00
2022-11-23T20:51:54.876Z,100.00
2022-11-23T20:54:22.054Z,100.00
2022-11-23T20:56:48.976Z,100.00
2022-11-23T20:59:16.153Z,100.00
2022-11-23T21:01:43.184Z,100.00
2022-11-23T21:04:10.298Z,100.00
2022-11-23T21:06:39.684Z,100.00
2022-11-23T21:09:10.959Z,100.00
2022-11-23T21:11:56.892Z,100.00
2022-11-23T21:14:28.116Z,100.00
2022-11-23T21:17:00.864Z,100.00
2022-11-23T21:19:37.450Z,100.00
2022-11-23T21:22:10.956Z,100.00
2022-11-23T21:24:38.905Z,100.00
2022-11-23T21:27:08.293Z,100.00
2022-11-23T21:29:35.328Z,100.00
2022-11-23T21:32:02.220Z,100.00
2022-11-23T21:34:30.392Z,100.00
2022-11-23T21:36:58.463Z,100.00
2022-11-23T21:39:25.720Z,100.00
2022-11-23T21:41:54.178Z,100.00
2022-11-23T21:44:23.017Z,100.00
2022-11-23T21:46:50.559Z,100.00
2022-11-23T21:49:17.680Z,100.00
2022-11-23T21:51:45.675Z,100.00
2022-11-23T21:54:16.492Z,100.00
2022-11-23T21:56:45.590Z,100.00
2022-11-23T21:59:13.626Z,100.00
2022-11-23T22:01:41.861Z,100.00
2022-11-23T22:04:15.415Z,100.00
2022-11-23T22:06:44.343Z,100.00
2022-11-23T22:09:12.472Z,100.00
2022-11-23T22:11:41.685Z,100.00
2022-11-23T22:14:12.675Z,100.00
2022-11-23T22:16:49.707Z,100.00
2022-11-23T22:19:17.827Z,100.00
2022-11-23T22:21:46.716Z,100.00
2022-11-23T22:24:17.598Z,100.00
2022-11-23T22:26:46.323Z,100.00
2022-11-23T22:29:13.534Z,100.00
2022-11-23T22:31:41.141Z,100.00
2022-11-23T22:34:12.497Z,100.00
2022-11-23T22:36:39.834Z,100.00
2022-11-23T22:39:07.718Z,100.00
2022-11-23T22:41:37.269Z,100.00
2022-11-23T22:44:09.983Z,100.00
2022-11-23T22:46:38.811Z,100.00
2022-11-23T22:49:06.218Z,100.00
2022-11-23T22:51:33.832Z,100.00
2022-11-23T22:54:01.633Z,100.00
2022-11-23T22:56:30.478Z,100.00
2022-11-23T22:58:57.450Z,100.00
2022-11-23T23:01:28.921Z,100.00
2022-11-23T23:03:58.409Z,100.00
2022-11-23T23:06:29.205Z,100.00
2022-11-23T23:09:01.287Z,100.00
2022-11-23T23:11:31.393Z,100.00
2022-11-23T23:13:59.060Z,100.00
2022-11-23T23:16:26.980Z,100.00
2022-11-23T23:18:58.260Z,100.00
2022-11-23T23:21:27.943Z,100.00
2022-11-23T23:23:58.716Z,100.00
2022-11-23T23:26:27.334Z,100.00
2022-11-23T23:28:56.958Z,100.00
2022-11-23T23:31:25.116Z,100.00
2022-11-23T23:33:53.549Z,100.00
2022-11-23T23:36:23.342Z,100.00
2022-11-23T23:38:50.928Z,100.00
2022-11-23T23:41:18.398Z,100.00
2022-11-23T23:43:45.406Z,100.00
2022-11-23T23:46:13.638Z,100.00
2022-11-23T23:48:41.694Z,100.00
2022-11-23T23:51:15.131Z,100.00
2022-11-23T23:53:43.265Z,100.00
2022-11-23T23:56:25.866Z,100.00
2022-11-23T23:59:00.113Z,100.00
